Terminal Aerodrome Forecast
Issued by NWS Portland, ME

Home | Current Version | Previous Version | Text Only | Print | Product List | Glossary On
Versions: 1 2 3 4 5 6 7 8 9 10 11 12 13 14 15 16 17 18 19 20 21 22 23 24 25 26 27 28 29 30 31
891
FTUS41 KGYX 261121
TAFCON
TAF
KCON 261121Z 2612/2712 29013G23KT P6SM BKN045
     FM261400 30015G24KT P6SM BKN045
     FM262300 28009KT P6SM SKC=

USA.gov is the U.S. government's official web portal to all federal, state and local government web resources and services.